VAGO/GOI METAR and TAF weather

Enter ICAO airport designator
Station Type Date Time Source
VAGO METAR 2018/06/20 11:30 UTC NOAA

VAGO 201130Z 29013KT 0800 +RA SCT004 BKN010 OVC070 24/24 Q1003 TEMPO 0500 +RA


Station Type Date Time Source
VAGO Decoded METAR 2018/06/20 11:30 UTC NOAA

Goa / Dabolim Airport, India (VAGO) 15-23N 073-49E 52M
Jun 20, 2018 - 07:30 AM EDT / 2018.06.20 1130 UTC
Wind: from the WNW (290 degrees) at 15 MPH (13 KT):0
Visibility: less than 1 mile:0
Sky conditions: overcast
Weather: heavy rain
Temperature: 75 F (24 C)
Dew Point: 75 F (24 C)
Relative Humidity: 100%
Pressure (altimeter): 29.62 in. Hg (1003 hPa)
ob: VAGO 201130Z 29013KT 0800 +RA SCT004 BKN010 OVC070 24/24 Q1003 TEMPO 0500 +RA
cycle: 11

Station Type Date Time Source
VAGO TAF 2012/05/26 06:54 UTC NOAA

TAF TAF VAGO 260300Z 2606/2712 3610KT 6000 FEW018 SCT090
BECMG 2608/2610 30010G20KT
BECMG 2616/2618 36010KT
BECMG 2700/2702 VRB03KT
BECMG 2703/2705 36010KT
BECMG 2708/2710 30010G20


Example: see airport list